DEGGT EDDL-EDLW
Flight info
| Callsign | DEGGT |
|---|---|
| Flight time | N/A |
| Altitude | 9000 |
| Route | DCT |
| Aircraft | DA62/L-SDFGRY/C |
Departure
| Time | 2026-05-04 14:17 |
|---|---|
| Airport | Düsseldorf Airport (EDDL) |
Arrival
| Time | N/A |
|---|---|
| Airport | Dortmund Airport (EDLW) |
| Time | Latitude | Longitude | Altitude | Speed | Heading |
|---|---|---|---|---|---|
| 2026-05-04 14:06 | 51.27557 | 6.75316 | 131 ft | 0 kts | 63° |
| 2026-05-04 14:10 | 51.27557 | 6.75317 | 131 ft | 2 kts | 52° |
| 2026-05-04 14:10 | 51.27558 | 6.75319 | 131 ft | 0 kts | 39° |
| 2026-05-04 14:11 | 51.27659 | 6.75182 | 131 ft | 9 kts | 5° |
| 2026-05-04 14:11 | 51.27712 | 6.75194 | 131 ft | 6 kts | 13° |
| 2026-05-04 14:12 | 51.27741 | 6.75214 | 130 ft | 3 kts | 45° |
| 2026-05-04 14:12 | 51.27747 | 6.75224 | 130 ft | 0 kts | 46° |
| 2026-05-04 14:12 | 51.27829 | 6.75392 | 131 ft | 10 kts | 52° |
| 2026-05-04 14:13 | 51.27862 | 6.75463 | 131 ft | 6 kts | 54° |
| 2026-05-04 14:13 | 51.27879 | 6.75499 | 131 ft | 0 kts | 53° |
| 2026-05-04 14:13 | 51.27884 | 6.75510 | 131 ft | 6 kts | 54° |
| 2026-05-04 14:14 | 51.27948 | 6.75643 | 131 ft | 20 kts | 51° |
| 2026-05-04 14:14 | 51.28135 | 6.76021 | 131 ft | 24 kts | 53° |
| 2026-05-04 14:14 | 51.28221 | 6.76212 | 131 ft | 18 kts | 52° |
| 2026-05-04 14:15 | 51.28379 | 6.76543 | 131 ft | 31 kts | 56° |
| 2026-05-04 14:15 | 51.28565 | 6.76707 | 128 ft | 0 kts | 322° |
| 2026-05-04 14:16 | 51.28619 | 6.76617 | 128 ft | 23 kts | 276° |
| 2026-05-04 14:17 | 51.28086 | 6.75472 | 202 ft | 101 kts | 233° |
| 2026-05-04 14:17 | 51.27640 | 6.74580 | 485 ft | 105 kts | 232° |
| 2026-05-04 14:17 | 51.26750 | 6.72668 | 1130 ft | 108 kts | 233° |
| 2026-05-04 14:18 | 51.26129 | 6.72114 | 1527 ft | 111 kts | 175° |
| 2026-05-04 14:18 | 51.24727 | 6.73090 | 2249 ft | 111 kts | 158° |
| 2026-05-04 14:19 | 51.23074 | 6.74275 | 2314 ft | 144 kts | 158° |
| 2026-05-04 14:19 | 51.22129 | 6.74944 | 2303 ft | 151 kts | 158° |
| 2026-05-04 14:19 | 51.21169 | 6.75638 | 2304 ft | 152 kts | 158° |
| 2026-05-04 14:19 | 51.20232 | 6.76446 | 2300 ft | 155 kts | 138° |
| 2026-05-04 14:20 | 51.19862 | 6.78039 | 2300 ft | 161 kts | 89° |
| 2026-05-04 14:20 | 51.20162 | 6.79763 | 2298 ft | 162 kts | 74° |
| 2026-05-04 14:20 | 51.20521 | 6.81445 | 2306 ft | 162 kts | 72° |
| 2026-05-04 14:21 | 51.21250 | 6.84823 | 2299 ft | 160 kts | 73° |
| 2026-05-04 14:21 | 51.21620 | 6.86491 | 2302 ft | 159 kts | 72° |
| 2026-05-04 14:21 | 51.21981 | 6.88173 | 2284 ft | 164 kts | 73° |
| 2026-05-04 14:21 | 51.22358 | 6.89941 | 2343 ft | 171 kts | 72° |
| 2026-05-04 14:22 | 51.22745 | 6.91757 | 2407 ft | 174 kts | 73° |
| 2026-05-04 14:22 | 51.23140 | 6.93595 | 2482 ft | 176 kts | 73° |
| 2026-05-04 14:22 | 51.23541 | 6.95438 | 2542 ft | 176 kts | 73° |
| 2026-05-04 14:22 | 51.23946 | 6.97288 | 2628 ft | 176 kts | 73° |
| 2026-05-04 14:23 | 51.24747 | 7.00948 | 2890 ft | 172 kts | 73° |
| 2026-05-04 14:23 | 51.25141 | 7.02725 | 3088 ft | 168 kts | 73° |
| 2026-05-04 14:23 | 51.25529 | 7.04487 | 3297 ft | 170 kts | 73° |
| 2026-05-04 14:24 | 51.25919 | 7.06298 | 3506 ft | 176 kts | 74° |
| 2026-05-04 14:24 | 51.26324 | 7.08153 | 3742 ft | 175 kts | 73° |
| 2026-05-04 14:24 | 51.26715 | 7.09963 | 3993 ft | 171 kts | 73° |
| 2026-05-04 14:24 | 51.27102 | 7.11737 | 4270 ft | 166 kts | 73° |
| 2026-05-04 14:25 | 51.27477 | 7.13448 | 4575 ft | 161 kts | 73° |
| 2026-05-04 14:25 | 51.28218 | 7.16776 | 5175 ft | 158 kts | 73° |
| 2026-05-04 14:25 | 51.28589 | 7.18439 | 5470 ft | 159 kts | 73° |
| 2026-05-04 14:26 | 51.28963 | 7.20099 | 5770 ft | 159 kts | 73° |
| 2026-05-04 14:26 | 51.29335 | 7.21765 | 6080 ft | 159 kts | 73° |
| 2026-05-04 14:26 | 51.29707 | 7.23433 | 6384 ft | 160 kts | 73° |
| 2026-05-04 14:26 | 51.30083 | 7.25115 | 6674 ft | 161 kts | 72° |
| 2026-05-04 14:27 | 51.30456 | 7.26805 | 6964 ft | 162 kts | 73° |
| 2026-05-04 14:27 | 51.30831 | 7.28509 | 7260 ft | 163 kts | 73° |
| 2026-05-04 14:27 | 51.31202 | 7.30203 | 7548 ft | 164 kts | 73° |
| 2026-05-04 14:27 | 51.31578 | 7.31926 | 7858 ft | 165 kts | 73° |
| 2026-05-04 14:28 | 51.31956 | 7.33662 | 8158 ft | 166 kts | 73° |
| 2026-05-04 14:28 | 51.32334 | 7.35406 | 8464 ft | 166 kts | 73° |
| 2026-05-04 14:28 | 51.32710 | 7.37151 | 8769 ft | 166 kts | 73° |
| 2026-05-04 14:28 | 51.33086 | 7.38904 | 9096 ft | 168 kts | 73° |
| 2026-05-04 14:29 | 51.33187 | 7.42437 | 9711 ft | 162 kts | 118° |
| 2026-05-04 14:29 | 51.32274 | 7.45913 | 9988 ft | 185 kts | 101° |
| 2026-05-04 14:30 | 51.32540 | 7.47939 | 10005 ft | 198 kts | 61° |
| 2026-05-04 14:30 | 51.33329 | 7.49728 | 9996 ft | 180 kts | 54° |
| 2026-05-04 14:30 | 51.34509 | 7.52122 | 9878 ft | 110 kts | 53° |
| 2026-05-04 14:31 | 51.34930 | 7.53065 | 8582 ft | 146 kts | 28° |
| 2026-05-04 14:31 | 51.36088 | 7.54165 | 6553 ft | 143 kts | 140° |
| 2026-05-04 14:32 | 51.35486 | 7.55322 | 4513 ft | 133 kts | 149° |
| 2026-05-04 14:32 | 51.34783 | 7.56123 | 4153 ft | 113 kts | 159° |
| 2026-05-04 14:32 | 51.34170 | 7.55723 | 3713 ft | 107 kts | 247° |
| 2026-05-04 14:32 | 51.34421 | 7.54618 | 3257 ft | 120 kts | 323° |
| 2026-05-04 14:33 | 51.35235 | 7.54714 | 2575 ft | 140 kts | 39° |
| 2026-05-04 14:33 | 51.35607 | 7.55985 | 2420 ft | 108 kts | 90° |
| 2026-05-04 14:33 | 51.35417 | 7.56923 | 2314 ft | 82 kts | 147° |
| 2026-05-04 14:33 | 51.35122 | 7.57751 | 2323 ft | 111 kts | 84° |
| 2026-05-04 14:34 | 51.35540 | 7.58976 | 2495 ft | 138 kts | 60° |
| 2026-05-04 14:34 | 51.36085 | 7.60400 | 2508 ft | 152 kts | 59° |
| 2026-05-04 14:34 | 51.36607 | 7.61742 | 2508 ft | 135 kts | 58° |
| 2026-05-04 14:34 | 51.37084 | 7.62974 | 2492 ft | 126 kts | 59° |
| 2026-05-04 14:35 | 51.37532 | 7.64128 | 2486 ft | 122 kts | 58° |
| 2026-05-04 14:35 | 51.37982 | 7.65272 | 2524 ft | 123 kts | 59° |
| 2026-05-04 14:35 | 51.38445 | 7.66452 | 2561 ft | 124 kts | 58° |
| 2026-05-04 14:35 | 51.38893 | 7.67630 | 2560 ft | 124 kts | 59° |
| 2026-05-04 14:36 | 51.39339 | 7.68783 | 2599 ft | 123 kts | 59° |
| 2026-05-04 14:36 | 51.39790 | 7.69953 | 2639 ft | 123 kts | 59° |
| 2026-05-04 14:36 | 51.40311 | 7.70982 | 2548 ft | 116 kts | 24° |
| 2026-05-04 14:36 | 51.41077 | 7.71119 | 2459 ft | 109 kts | 359° |
| 2026-05-04 14:37 | 51.41822 | 7.71170 | 2373 ft | 105 kts | 358° |
| 2026-05-04 14:37 | 51.42544 | 7.71216 | 2290 ft | 100 kts | 358° |
| 2026-05-04 14:37 | 51.43206 | 7.71260 | 2278 ft | 93 kts | 356° |
| 2026-05-04 14:37 | 51.43844 | 7.71304 | 2231 ft | 97 kts | 357° |
| 2026-05-04 14:38 | 51.44566 | 7.71335 | 2113 ft | 110 kts | 359° |
| 2026-05-04 14:38 | 51.45377 | 7.71364 | 1988 ft | 120 kts | 359° |
| 2026-05-04 14:38 | 51.46233 | 7.71380 | 1866 ft | 125 kts | 358° |
| 2026-05-04 14:38 | 51.47125 | 7.71400 | 1748 ft | 132 kts | 359° |
| 2026-05-04 14:39 | 51.48059 | 7.71425 | 1609 ft | 135 kts | 358° |
| 2026-05-04 14:39 | 51.48959 | 7.71459 | 1593 ft | 123 kts | 357° |
| 2026-05-04 14:39 | 51.49770 | 7.71458 | 1578 ft | 113 kts | 350° |
| 2026-05-04 14:40 | 51.51086 | 7.70447 | 1525 ft | 109 kts | 332° |
| 2026-05-04 14:40 | 51.51746 | 7.69874 | 1535 ft | 106 kts | 327° |
| 2026-05-04 14:40 | 51.52449 | 7.69415 | 1399 ft | 110 kts | 335° |
| 2026-05-04 14:40 | 51.53146 | 7.68964 | 1267 ft | 106 kts | 335° |
| 2026-05-04 14:41 | 51.53777 | 7.68440 | 1095 ft | 98 kts | 313° |
| 2026-05-04 14:41 | 51.53961 | 7.67432 | 977 ft | 108 kts | 255° |
| 2026-05-04 14:41 | 51.53251 | 7.65429 | 823 ft | 94 kts | 245° |
| 2026-05-04 14:42 | 51.52617 | 7.63493 | 617 ft | 105 kts | 245° |
| 2026-05-04 14:42 | 51.52300 | 7.62573 | 479 ft | 83 kts | 246° |
| 2026-05-04 14:42 | 51.52049 | 7.61846 | 409 ft | 62 kts | 243° |
| 2026-05-04 14:43 | 51.51787 | 7.61092 | 427 ft | 95 kts | 246° |
| 2026-05-04 14:43 | 51.51451 | 7.60155 | 731 ft | 101 kts | 245° |
| 2026-05-04 14:43 | 51.51099 | 7.59131 | 1051 ft | 107 kts | 242° |
| 2026-05-04 14:43 | 51.50835 | 7.58459 | 1258 ft | 113 kts | 227° |
| 2026-05-04 14:44 | 51.50058 | 7.57981 | 1474 ft | 132 kts | 177° |
| 2026-05-04 14:44 | 51.48930 | 7.58797 | 1596 ft | 131 kts | 145° |
| 2026-05-04 14:44 | 51.48524 | 7.60061 | 1570 ft | 139 kts | 98° |
| 2026-05-04 14:44 | 51.48644 | 7.61124 | 1534 ft | 147 kts | 63° |
| 2026-05-04 14:45 | 51.49140 | 7.62475 | 1577 ft | 134 kts | 58° |
| 2026-05-04 14:45 | 51.49639 | 7.63708 | 1559 ft | 127 kts | 57° |
| 2026-05-04 14:45 | 51.50107 | 7.64874 | 1557 ft | 124 kts | 59° |
| 2026-05-04 14:45 | 51.50538 | 7.66068 | 1472 ft | 122 kts | 46° |
| 2026-05-04 14:46 | 51.51277 | 7.66129 | 1273 ft | 113 kts | 329° |
| 2026-05-04 14:46 | 51.51948 | 7.65523 | 1064 ft | 108 kts | 325° |
| 2026-05-04 14:46 | 51.52348 | 7.64583 | 892 ft | 105 kts | 300° |
| 2026-05-04 14:46 | 51.52498 | 7.63400 | 695 ft | 112 kts | 261° |
| 2026-05-04 14:47 | 51.52169 | 7.62182 | 937 ft | 125 kts | 245° |
| 2026-05-04 14:47 | 51.51714 | 7.60889 | 1107 ft | 140 kts | 240° |
| 2026-05-04 14:47 | 51.50988 | 7.59894 | 1394 ft | 145 kts | 184° |
| 2026-05-04 14:47 | 51.50075 | 7.60568 | 1612 ft | 144 kts | 148° |
| 2026-05-04 14:48 | 51.49533 | 7.61704 | 1488 ft | 132 kts | 88° |
| 2026-05-04 14:48 | 51.49883 | 7.62938 | 1501 ft | 110 kts | 63° |
| 2026-05-04 14:48 | 51.50200 | 7.63938 | 1538 ft | 96 kts | 64° |
| 2026-05-04 14:48 | 51.50526 | 7.64945 | 1545 ft | 108 kts | 63° |
| 2026-05-04 14:49 | 51.50886 | 7.66073 | 1555 ft | 120 kts | 63° |
| 2026-05-04 14:49 | 51.51278 | 7.67314 | 1573 ft | 129 kts | 63° |
| 2026-05-04 14:49 | 51.51679 | 7.68598 | 1559 ft | 131 kts | 63° |
| 2026-05-04 14:49 | 51.52095 | 7.69896 | 1562 ft | 130 kts | 62° |
| 2026-05-04 14:50 | 51.52600 | 7.71053 | 1579 ft | 125 kts | 21° |
| 2026-05-04 14:50 | 51.53405 | 7.70801 | 1519 ft | 122 kts | 332° |
| 2026-05-04 14:50 | 51.54176 | 7.70236 | 1504 ft | 121 kts | 331° |
| 2026-05-04 14:50 | 51.54682 | 7.69254 | 1476 ft | 120 kts | 274° |
| 2026-05-04 14:51 | 51.54375 | 7.68019 | 1206 ft | 123 kts | 234° |
| 2026-05-04 14:51 | 51.53879 | 7.66996 | 1041 ft | 113 kts | 232° |
| 2026-05-04 14:51 | 51.53460 | 7.65949 | 910 ft | 110 kts | 246° |
| 2026-05-04 14:51 | 51.53095 | 7.64875 | 770 ft | 107 kts | 242° |
| 2026-05-04 14:52 | 51.52747 | 7.63929 | 595 ft | 96 kts | 245° |
| 2026-05-04 14:52 | 51.52433 | 7.62983 | 542 ft | 92 kts | 246° |
| 2026-05-04 14:52 | 51.52164 | 7.62189 | 426 ft | 72 kts | 246° |
| 2026-05-04 14:52 | 51.51969 | 7.61613 | 412 ft | 52 kts | 242° |
| 2026-05-04 14:53 | 51.51704 | 7.60885 | 532 ft | 84 kts | 240° |
| 2026-05-04 14:53 | 51.51414 | 7.59989 | 778 ft | 99 kts | 247° |
| 2026-05-04 14:53 | 51.51081 | 7.58915 | 1003 ft | 115 kts | 244° |
| 2026-05-04 14:53 | 51.50377 | 7.58342 | 1186 ft | 133 kts | 166° |
| 2026-05-04 14:54 | 51.49542 | 7.59097 | 1489 ft | 137 kts | 150° |
| 2026-05-04 14:54 | 51.48992 | 7.60267 | 1630 ft | 149 kts | 83° |
| 2026-05-04 14:54 | 51.49479 | 7.61786 | 1619 ft | 155 kts | 62° |
| 2026-05-04 14:54 | 51.49960 | 7.63248 | 1554 ft | 141 kts | 63° |
| 2026-05-04 14:55 | 51.50392 | 7.64589 | 1554 ft | 130 kts | 64° |
| 2026-05-04 14:55 | 51.50810 | 7.65836 | 1500 ft | 127 kts | 62° |
| 2026-05-04 14:55 | 51.51464 | 7.66675 | 1284 ft | 131 kts | 356° |
| 2026-05-04 14:55 | 51.52265 | 7.66258 | 1161 ft | 112 kts | 336° |
| 2026-05-04 14:56 | 51.52934 | 7.65759 | 1014 ft | 101 kts | 320° |
| 2026-05-04 14:56 | 51.53114 | 7.64784 | 822 ft | 97 kts | 253° |
| 2026-05-04 14:56 | 51.52724 | 7.63818 | 693 ft | 101 kts | 240° |
| 2026-05-04 14:56 | 51.52424 | 7.62958 | 530 ft | 81 kts | 247° |
| 2026-05-04 14:57 | 51.52157 | 7.62164 | 423 ft | 77 kts | 243° |